KCHO Airport Information

Runway Information
Runway 03 Length 6001 ft width 150 ft
Elevation 639 ft Threshold 0 ft Heading 22
Runway 21 Length 6001 ft Width 150 ft
Elevation 620 ft Threshold 0 ft Heading 202
Airport Frequencies
Type A/D Name POTOMAC AP Frequency 132.85 MHZ
Type ASOS Name ASOS Frequency 118.425 MHZ
Type ATIS Name ATIS Frequency 118.425 MHZ
Type CTAF Name CTAF Frequency 124.5 MHZ
Type GND Name GND Frequency 121.9 MHZ
Type RDO Name LEESBURG R Frequency 122.2 MHZ
Type TWR Name TWR Frequency 124.5 MHZ
Type UNIC Name UNICOM Frequency 122.95 MHZ
Airport Navaids
Type NDB Name Azalea Park Frequency 336 KHZ
Airport Weather Information & NOTAM
ADDS - METARS form results

(1445 UTC 20 April 2018)
Data provider http://aviationweather.gov/adds/metars/
 
METAR text: KCHO 201353Z 31006KT 10SM CLR 09/M08 A3033 RMK AO2 SLP272 T00941078
Conditions at: KCHO (CHARLOTTESVILLE , VA, US) observed 1353 UTC 20 April 2018
Temperature: 9.4°C (49°F)
Dewpoint: -7.8°C (18°F) [RH = 29%]
Pressure (altimeter): 30.33 inches Hg (1027.2 mb)
[Sea-level pressure: 1027.2 mb]
Winds: from the NW (310 degrees) at 7 MPH (6 knots; 3.1 m/s)
Visibility: 10 or more miles (16+ km)
Ceiling: at least 12,000 feet AGL
Clouds: sky clear below 12,000 feet AGL
Weather: no significant weather observed at this time

Forecast for: KCHO (CHARLOTTESVILLE , VA, US)
Text: KCHO 201128Z 2012/2112 35007KT P6SM FEW250
Forecast period: 1200 to 1400 UTC 20 April 2018
Forecast type: FROM: standard forecast or significant change
Winds: from the N (350 degrees) at 8 MPH (7 knots; 3.6 m/s)
Visibility: 6 or more miles (10+ km)
Clouds: few clouds at 25000 feet AGL
Weather: no significant weather forecast for this period
Forecast for: KCHO (CHARLOTTESVILLE , VA, US)
Text: KCHO 201128Z 2012/2112 35007KT P6SM FEW250
Forecast period: 1200 to 1400 UTC 20 April 2018
Forecast type: FROM: standard forecast or significant change
Winds: from the N (350 degrees) at 8 MPH (7 knots; 3.6 m/s)
Visibility: 6 or more miles (10+ km)
Clouds: few clouds at 25000 feet AGL
Weather: no significant weather forecast for this period
Forecast for: KCHO (CHARLOTTESVILLE , VA, US)
Text: KCHO 201128Z 2012/2112 35007KT P6SM FEW250
Forecast period: 1400 UTC 20 April 2018 to 0300 UTC 21 April 2018
Forecast type: FROM: standard forecast or significant change
Winds: from the NNW (330 degrees) at 12 MPH (10 knots; 5.2 m/s)
Visibility: 6 or more miles (10+ km)
Clouds: clear skies
Weather: no significant weather forecast for this period
Forecast for: KCHO (CHARLOTTESVILLE , VA, US)
Text: KCHO 201128Z 2012/2112 35007KT P6SM FEW250
Forecast period: 1400 UTC 20 April 2018 to 0300 UTC 21 April 2018
Forecast type: FROM: standard forecast or significant change
Winds: from the NNW (330 degrees) at 12 MPH (10 knots; 5.2 m/s)
Visibility: 6 or more miles (10+ km)
Clouds: clear skies
Weather: no significant weather forecast for this period
Forecast for: KCHO (CHARLOTTESVILLE , VA, US)
Text: KCHO 201128Z 2012/2112 35007KT P6SM FEW250
Forecast period: 0300 to 1200 UTC 21 April 2018
Forecast type: FROM: standard forecast or significant change
Winds: variable direction winds at 2 MPH (2 knots; 1.0 m/s)
Visibility: 6 or more miles (10+ km)
Clouds: clear skies
Weather: no significant weather forecast for this period
Forecast for: KCHO (CHARLOTTESVILLE , VA, US)
Text: KCHO 201128Z 2012/2112 35007KT P6SM FEW250
Forecast period: 0300 to 1200 UTC 21 April 2018
Forecast type: FROM: standard forecast or significant change
Winds: variable direction winds at 2 MPH (2 knots; 1.0 m/s)
Visibility: 6 or more miles (10+ km)
Clouds: clear skies
Weather: no significant weather forecast for this period